Weather at Brady Heliport

Public forecast

Using degrees Fahrenheit for public forecast. Weather courtesy of forecast.io.

Closest aviation weather report (METAR) to Brady Heliport

Closest report is North Palm Beach County General Aviation Airport, 7.9 nm (14.6 km) W.

2024/05/21 00:10 (retrieved 15 minutes ago)

KF45 210010Z AUTO 03007KT 10SM FEW042 25/22 A2988 RMK AO2 TSNO

Closest aviation forecast (TAF) to Brady Heliport

Closest forecast is Grand Bahama International Airport, 76.1 nm (140.9 km) ESE.

2024/05/20 18:51 (retrieved 6 hours ago)

TAF MYGF 201735Z 2018/2118 25006KT 9999 SCT025 FM210100 25005KT 9999 VCTS FEW018CB SCT020